sensor_id;sensor_type;location;lat;lon;timestamp;pressure;altitude;pressure_sealevel;temperature;humidity
33414;BME280;60055;41.884;12.534;2024-01-11T00:02:21;101533.56;;;8.07;75.71
33414;BME280;60055;41.884;12.534;2024-01-11T00:04:47;101523.84;;;8.12;75.18
33414;BME280;60055;41.884;12.534;2024-01-11T00:07:12;101526.59;;;8.02;75.47
33414;BME280;60055;41.884;12.534;2024-01-11T00:09:43;101526.72;;;7.91;75.69
33414;BME280;60055;41.884;12.534;2024-01-11T00:12:09;101521.47;;;7.91;76.01
33414;BME280;60055;41.884;12.534;2024-01-11T00:14:35;101523.44;;;7.76;75.98
33414;BME280;60055;41.884;12.534;2024-01-11T00:17:01;101522.34;;;7.92;75.90
33414;BME280;60055;41.884;12.534;2024-01-11T00:19:27;101517.09;;;7.93;75.33
33414;BME280;60055;41.884;12.534;2024-01-11T00:21:52;101524.09;;;7.93;75.27
33414;BME280;60055;41.884;12.534;2024-01-11T00:24:18;101518.00;;;7.91;75.54
33414;BME280;60055;41.884;12.534;2024-01-11T00:26:43;101509.06;;;8.02;75.26
33414;BME280;60055;41.884;12.534;2024-01-11T00:29:08;101508.28;;;7.97;75.09
33414;BME280;60055;41.884;12.534;2024-01-11T00:31:34;101512.66;;;7.95;74.89
33414;BME280;60055;41.884;12.534;2024-01-11T00:34:00;101502.78;;;8.12;75.07
33414;BME280;60055;41.884;12.534;2024-01-11T00:36:26;101508.16;;;8.05;74.37
33414;BME280;60055;41.884;12.534;2024-01-11T00:38:51;101496.69;;;8.10;75.01
33414;BME280;60055;41.884;12.534;2024-01-11T00:41:17;101501.81;;;8.21;75.32
33414;BME280;60055;41.884;12.534;2024-01-11T00:43:42;101497.47;;;8.17;73.71
33414;BME280;60055;41.884;12.534;2024-01-11T00:46:08;101506.31;;;8.11;73.84
33414;BME280;60055;41.884;12.534;2024-01-11T00:48:33;101509.19;;;7.93;74.87
33414;BME280;60055;41.884;12.534;2024-01-11T00:50:59;101509.22;;;7.90;74.38
33414;BME280;60055;41.884;12.534;2024-01-11T00:53:24;101500.38;;;7.94;74.00
33414;BME280;60055;41.884;12.534;2024-01-11T00:55:51;101503.97;;;7.89;74.20
33414;BME280;60055;41.884;12.534;2024-01-11T00:58:16;101504.91;;;7.86;74.28
33414;BME280;60055;41.884;12.534;2024-01-11T01:00:41;101509.19;;;7.93;74.77
33414;BME280;60055;41.884;12.534;2024-01-11T01:03:07;101510.81;;;8.02;74.00
33414;BME280;60055;41.884;12.534;2024-01-11T01:05:32;101507.22;;;8.09;74.04
33414;BME280;60055;41.884;12.534;2024-01-11T01:07:58;101510.00;;;7.98;73.35
33414;BME280;60055;41.884;12.534;2024-01-11T01:10:23;101505.59;;;8.00;73.56
33414;BME280;60055;41.884;12.534;2024-01-11T01:12:49;101499.38;;;8.06;73.54
33414;BME280;60055;41.884;12.534;2024-01-11T01:15:14;101502.84;;;8.09;73.78
33414;BME280;60055;41.884;12.534;2024-01-11T01:17:40;101500.34;;;8.00;73.08
33414;BME280;60055;41.884;12.534;2024-01-11T01:20:05;101499.28;;;8.13;73.03
33414;BME280;60055;41.884;12.534;2024-01-11T01:22:31;101503.72;;;8.10;73.26
33414;BME280;60055;41.884;12.534;2024-01-11T01:24:56;101510.81;;;8.02;73.24
33414;BME280;60055;41.884;12.534;2024-01-11T01:27:22;101511.69;;;8.04;73.01
33414;BME280;60055;41.884;12.534;2024-01-11T01:29:47;101503.75;;;8.07;72.67
33414;BME280;60055;41.884;12.534;2024-01-11T01:32:13;101501.22;;;7.99;72.73
33414;BME280;60055;41.884;12.534;2024-01-11T01:34:38;101512.66;;;7.95;73.37
33414;BME280;60055;41.884;12.534;2024-01-11T01:37:04;101504.94;;;7.82;73.66
33414;BME280;60055;41.884;12.534;2024-01-11T01:39:29;101502.34;;;7.79;74.37
33414;BME280;60055;41.884;12.534;2024-01-11T01:41:54;101503.31;;;7.73;73.62
33414;BME280;60055;41.884;12.534;2024-01-11T01:44:20;101498.00;;;7.75;73.98
33414;BME280;60055;41.884;12.534;2024-01-11T01:46:45;101491.91;;;7.72;74.06
33414;BME280;60055;41.884;12.534;2024-01-11T01:49:12;101491.03;;;7.72;74.00
33414;BME280;60055;41.884;12.534;2024-01-11T01:51:38;101486.63;;;7.77;74.02
33414;BME280;60055;41.884;12.534;2024-01-11T01:54:03;101484.88;;;7.76;73.38
33414;BME280;60055;41.884;12.534;2024-01-11T01:56:29;101486.56;;;7.80;73.33
33414;BME280;60055;41.884;12.534;2024-01-11T01:58:55;101491.78;;;7.82;73.25
33414;BME280;60055;41.884;12.534;2024-01-11T02:01:22;101481.38;;;7.76;72.81
33414;BME280;60055;41.884;12.534;2024-01-11T02:03:50;101481.28;;;7.83;72.92
33414;BME280;60055;41.884;12.534;2024-01-11T02:06:16;101481.41;;;7.71;73.21
33414;BME280;60055;41.884;12.534;2024-01-11T02:08:42;101471.63;;;7.82;72.76
33414;BME280;60055;41.884;12.534;2024-01-11T02:11:10;101481.31;;;7.79;73.17
33414;BME280;60055;41.884;12.534;2024-01-11T02:13:36;101467.25;;;7.81;72.69
33414;BME280;60055;41.884;12.534;2024-01-11T02:16:01;101468.03;;;7.91;72.52
33414;BME280;60055;41.884;12.534;2024-01-11T02:18:26;101475.72;;;8.04;71.65
33414;BME280;60055;41.884;12.534;2024-01-11T02:20:52;101474.09;;;7.94;72.06
33414;BME280;60055;41.884;12.534;2024-01-11T02:23:19;101468.09;;;7.86;72.19
33414;BME280;60055;41.884;12.534;2024-01-11T02:25:46;101470.75;;;7.82;72.77
33414;BME280;60055;41.884;12.534;2024-01-11T02:28:11;101465.50;;;7.83;72.76
33414;BME280;60055;41.884;12.534;2024-01-11T02:30:37;101468.00;;;7.94;72.55
33414;BME280;60055;41.884;12.534;2024-01-11T02:33:04;101461.97;;;7.84;72.39
33414;BME280;60055;41.884;12.534;2024-01-11T02:35:31;101452.41;;;7.80;72.24
33414;BME280;60055;41.884;12.534;2024-01-11T02:37:57;101456.69;;;7.86;72.32
33414;BME280;60055;41.884;12.534;2024-01-11T02:40:25;101453.97;;;7.92;72.93
33414;BME280;60055;41.884;12.534;2024-01-11T02:42:51;101457.53;;;7.91;73.06
33414;BME280;60055;41.884;12.534;2024-01-11T02:45:17;101457.53;;;7.89;71.75
33414;BME280;60055;41.884;12.534;2024-01-11T02:47:44;101459.41;;;7.78;72.05
33414;BME280;60055;41.884;12.534;2024-01-11T02:50:09;101449.81;;;7.76;73.27
33414;BME280;60055;41.884;12.534;2024-01-11T02:52:37;101452.25;;;7.89;71.66
33414;BME280;60055;41.884;12.534;2024-01-11T02:55:02;101450.66;;;7.81;71.77
33414;BME280;60055;41.884;12.534;2024-01-11T02:57:28;101448.81;;;7.86;71.88
33414;BME280;60055;41.884;12.534;2024-01-11T02:59:53;101441.88;;;7.79;71.96
33414;BME280;60055;41.884;12.534;2024-01-11T03:02:19;101448.09;;;7.73;71.98
33414;BME280;60055;41.884;12.534;2024-01-11T03:04:44;101456.00;;;7.71;72.22
33414;BME280;60055;41.884;12.534;2024-01-11T03:07:10;101455.88;;;7.82;71.83
33414;BME280;60055;41.884;12.534;2024-01-11T03:09:36;101458.63;;;7.71;72.03
33414;BME280;60055;41.884;12.534;2024-01-11T03:12:01;101454.25;;;7.70;72.10
33414;BME280;60055;41.884;12.534;2024-01-11T03:14:27;101458.63;;;7.73;71.97
33414;BME280;60055;41.884;12.534;2024-01-11T03:16:52;101455.16;;;7.69;72.26
33414;BME280;60055;41.884;12.534;2024-01-11T03:19:17;101454.41;;;7.60;72.21
33414;BME280;60055;41.884;12.534;2024-01-11T03:21:43;101448.19;;;7.67;72.18
33414;BME280;60055;41.884;12.534;2024-01-11T03:24:09;101445.56;;;7.64;72.61
33414;BME280;60055;41.884;12.534;2024-01-11T03:26:34;101460.50;;;7.63;73.28
33414;BME280;60055;41.884;12.534;2024-01-11T03:29:00;101453.50;;;7.61;72.45
33414;BME280;60055;41.884;12.534;2024-01-11T03:31:25;101443.84;;;7.63;72.28
33414;BME280;60055;41.884;12.534;2024-01-11T03:33:51;101447.34;;;7.63;72.06
33414;BME280;60055;41.884;12.534;2024-01-11T03:36:16;101448.16;;;7.70;71.91
33414;BME280;60055;41.884;12.534;2024-01-11T03:38:41;101444.78;;;7.59;72.17
33414;BME280;60055;41.884;12.534;2024-01-11T03:41:08;101450.03;;;7.59;72.40
33414;BME280;60055;41.884;12.534;2024-01-11T03:43:35;101443.84;;;7.61;72.43
33414;BME280;60055;41.884;12.534;2024-01-11T03:46:01;101445.66;;;7.58;72.44
33414;BME280;60055;41.884;12.534;2024-01-11T03:48:26;101437.06;;;7.47;73.00
33414;BME280;60055;41.884;12.534;2024-01-11T03:50:51;101440.53;;;7.49;72.71
33414;BME280;60055;41.884;12.534;2024-01-11T04:05:26;101428.91;;;7.65;72.70
33414;BME280;60055;41.884;12.534;2024-01-11T04:07:52;101442.09;;;7.63;71.97
33414;BME280;60055;41.884;12.534;2024-01-11T04:10:17;101436.94;;;7.56;72.39
33414;BME280;60055;41.884;12.534;2024-01-11T04:12:43;101437.78;;;7.59;72.63
33414;BME280;60055;41.884;12.534;2024-01-11T04:15:08;101441.19;;;7.64;72.10
33414;BME280;60055;41.884;12.534;2024-01-11T04:17:38;101435.97;;;7.63;72.15
33414;BME280;60055;41.884;12.534;2024-01-11T04:20:04;101443.19;;;7.46;72.48
33414;BME280;60055;41.884;12.534;2024-01-11T04:22:29;101438.84;;;7.42;72.68
33414;BME280;60055;41.884;12.534;2024-01-11T04:24:55;101437.97;;;7.43;73.50
33414;BME280;60055;41.884;12.534;2024-01-11T04:27:20;101437.09;;;7.41;73.18
33414;BME280;60055;41.884;12.534;2024-01-11T04:29:46;101440.56;;;7.46;73.28
33414;BME280;60055;41.884;12.534;2024-01-11T04:32:11;101437.91;;;7.47;73.27
33414;BME280;60055;41.884;12.534;2024-01-11T04:34:37;101436.25;;;7.37;73.30
33414;BME280;60055;41.884;12.534;2024-01-11T04:37:02;101431.97;;;7.30;73.15
33414;BME280;60055;41.884;12.534;2024-01-11T04:39:28;101432.72;;;7.41;73.64
33414;BME280;60055;41.884;12.534;2024-01-11T04:41:53;101430.09;;;7.41;73.18
33414;BME280;60055;41.884;12.534;2024-01-11T04:44:18;101434.56;;;7.36;72.89
33414;BME280;60055;41.884;12.534;2024-01-11T04:46:44;101428.34;;;7.43;73.53
33414;BME280;60055;41.884;12.534;2024-01-11T04:49:09;101424.91;;;7.34;73.33
33414;BME280;60055;41.884;12.534;2024-01-11T04:51:35;101436.38;;;7.27;73.18
33414;BME280;60055;41.884;12.534;2024-01-11T04:54:00;101437.38;;;7.18;73.72
33414;BME280;60055;41.884;12.534;2024-01-11T04:56:26;101425.88;;;7.27;73.34
33414;BME280;60055;41.884;12.534;2024-01-11T04:58:51;101432.00;;;7.29;74.11
33414;BME280;60055;41.884;12.534;2024-01-11T05:01:18;101429.50;;;7.19;72.97
33414;BME280;60055;41.884;12.534;2024-01-11T05:03:44;101426.81;;;7.23;72.51
33414;BME280;60055;41.884;12.534;2024-01-11T05:06:20;101417.94;;;7.31;72.24
33414;BME280;60055;41.884;12.534;2024-01-11T05:08:47;101424.91;;;7.37;73.14
33414;BME280;60055;41.884;12.534;2024-01-11T05:11:23;101422.25;;;7.38;72.32
33414;BME280;60055;41.884;12.534;2024-01-11T05:13:52;101421.38;;;7.38;72.34
33414;BME280;60055;41.884;12.534;2024-01-11T05:16:25;101422.28;;;7.35;72.13
33414;BME280;60055;41.884;12.534;2024-01-11T05:18:52;101418.00;;;7.30;71.77
33414;BME280;60055;41.884;12.534;2024-01-11T05:21:18;101432.13;;;7.19;71.96
33414;BME280;60055;41.884;12.534;2024-01-11T05:23:44;101426.75;;;7.27;72.28
33414;BME280;60055;41.884;12.534;2024-01-11T05:26:10;101428.47;;;7.33;71.74
33414;BME280;60055;41.884;12.534;2024-01-11T05:28:36;101434.69;;;7.21;71.49
33414;BME280;60055;41.884;12.534;2024-01-11T05:31:05;101432.06;;;7.23;71.87
33414;BME280;60055;41.884;12.534;2024-01-11T05:33:31;101430.38;;;7.18;71.85
33414;BME280;60055;41.884;12.534;2024-01-11T05:35:56;101425.94;;;7.20;71.70
33414;BME280;60055;41.884;12.534;2024-01-11T05:38:22;101428.50;;;7.27;72.10
33414;BME280;60055;41.884;12.534;2024-01-11T05:40:47;101427.66;;;7.25;71.77
33414;BME280;60055;41.884;12.534;2024-01-11T05:43:13;101417.91;;;7.36;71.39
33414;BME280;60055;41.884;12.534;2024-01-11T05:45:38;101421.28;;;7.47;71.36
33414;BME280;60055;41.884;12.534;2024-01-11T05:48:04;101427.41;;;7.46;72.16
33414;BME280;60055;41.884;12.534;2024-01-11T05:50:31;101426.75;;;7.29;71.17
33414;BME280;60055;41.884;12.534;2024-01-11T05:52:56;101418.88;;;7.27;71.78
33414;BME280;60055;41.884;12.534;2024-01-11T05:55:22;101416.16;;;7.35;72.55
33414;BME280;60055;41.884;12.534;2024-01-11T05:57:48;101421.38;;;7.38;71.81
33414;BME280;60055;41.884;12.534;2024-01-11T06:00:14;101417.00;;;7.38;71.50
33414;BME280;60055;41.884;12.534;2024-01-11T06:02:39;101416.13;;;7.38;71.56
33414;BME280;60055;41.884;12.534;2024-01-11T06:05:08;101418.38;;;7.68;74.61
33414;BME280;60055;41.884;12.534;2024-01-11T06:07:34;101424.75;;;7.47;71.31
33414;BME280;60055;41.884;12.534;2024-01-11T06:09:59;101416.81;;;7.52;70.95
33414;BME280;60055;41.884;12.534;2024-01-11T06:12:26;101417.56;;;7.61;71.48
33414;BME280;60055;41.884;12.534;2024-01-11T06:14:53;101428.34;;;7.42;71.17
33414;BME280;60055;41.884;12.534;2024-01-11T06:17:18;101426.59;;;7.41;71.08
33414;BME280;60055;41.884;12.534;2024-01-11T06:19:43;101426.00;;;7.19;72.77
33414;BME280;60055;41.884;12.534;2024-01-11T06:22:09;101422.28;;;7.34;72.89
33414;BME280;60055;41.884;12.534;2024-01-11T06:24:34;101422.38;;;7.29;71.93
33414;BME280;60055;41.884;12.534;2024-01-11T06:27:00;101423.28;;;7.24;71.44
33414;BME280;60055;41.884;12.534;2024-01-11T06:29:25;101423.41;;;7.16;72.51
33414;BME280;60055;41.884;12.534;2024-01-11T06:31:50;101426.19;;;6.99;72.41
33414;BME280;60055;41.884;12.534;2024-01-11T06:34:16;101420.88;;;7.05;72.07
33414;BME280;60055;41.884;12.534;2024-01-11T06:36:41;101421.53;;;7.26;72.08
33414;BME280;60055;41.884;12.534;2024-01-11T06:39:07;101419.69;;;7.32;72.25
33414;BME280;60055;41.884;12.534;2024-01-11T06:41:33;101415.47;;;7.19;72.17
33414;BME280;60055;41.884;12.534;2024-01-11T06:43:59;101412.75;;;7.28;71.93
33414;BME280;60055;41.884;12.534;2024-01-11T06:46:24;101415.47;;;7.17;71.60
33414;BME280;60055;41.884;12.534;2024-01-11T06:48:50;101407.56;;;7.22;71.47
33414;BME280;60055;41.884;12.534;2024-01-11T06:51:15;101409.34;;;7.17;72.14
33414;BME280;60055;41.884;12.534;2024-01-11T06:53:42;101408.50;;;7.15;71.67
33414;BME280;60055;41.884;12.534;2024-01-11T06:56:18;101407.75;;;7.05;72.94
33414;BME280;60055;41.884;12.534;2024-01-11T06:58:44;101412.75;;;7.30;74.18
33414;BME280;60055;41.884;12.534;2024-01-11T07:01:10;101399.81;;;7.13;71.85
33414;BME280;60055;41.884;12.534;2024-01-11T07:03:36;101404.91;;;7.24;71.56
33414;BME280;60055;41.884;12.534;2024-01-11T07:06:02;101398.81;;;7.23;71.85
33414;BME280;60055;41.884;12.534;2024-01-11T07:08:28;101399.41;;;7.46;71.74
33414;BME280;60055;41.884;12.534;2024-01-11T07:10:54;101400.19;;;7.53;71.08
33414;BME280;60055;41.884;12.534;2024-01-11T07:13:19;101401.72;;;7.69;70.52
33414;BME280;60055;41.884;12.534;2024-01-11T07:15:45;101399.25;;;7.57;70.15
33414;BME280;60055;41.884;12.534;2024-01-11T07:18:10;101399.09;;;7.67;69.61
33414;BME280;60055;41.884;12.534;2024-01-11T07:20:36;101406.94;;;7.72;69.78
33414;BME280;60055;41.884;12.534;2024-01-11T07:23:02;101402.63;;;7.65;69.81
33414;BME280;60055;41.884;12.534;2024-01-11T07:25:27;101401.81;;;7.63;69.79
33414;BME280;60055;41.884;12.534;2024-01-11T07:27:53;101412.97;;;7.79;70.55
33414;BME280;60055;41.884;12.534;2024-01-11T07:30:18;101414.03;;;7.64;69.65
33414;BME280;60055;41.884;12.534;2024-01-11T07:32:44;101414.25;;;7.47;69.74
33414;BME280;60055;41.884;12.534;2024-01-11T07:35:10;101407.06;;;7.63;70.84
33414;BME280;60055;41.884;12.534;2024-01-11T07:37:36;101406.13;;;7.67;69.51
33414;BME280;60055;41.884;12.534;2024-01-11T07:40:02;101415.63;;;7.77;69.12
33414;BME280;60055;41.884;12.534;2024-01-11T07:42:28;101413.88;;;7.76;69.16
33414;BME280;60055;41.884;12.534;2024-01-11T07:44:54;101417.44;;;7.74;69.20
33414;BME280;60055;41.884;12.534;2024-01-11T07:47:20;101414.56;;;7.90;70.32
33414;BME280;60055;41.884;12.534;2024-01-11T07:49:45;101422.31;;;7.99;68.85
33414;BME280;60055;41.884;12.534;2024-01-11T07:52:11;101415.16;;;8.10;68.05
33414;BME280;60055;41.884;12.534;2024-01-11T07:54:36;101417.97;;;7.97;68.31
33414;BME280;60055;41.884;12.534;2024-01-11T07:57:02;101407.44;;;7.98;68.02
33414;BME280;60055;41.884;12.534;2024-01-11T07:59:32;101412.59;;;8.06;67.91
33414;BME280;60055;41.884;12.534;2024-01-11T08:01:57;101415.06;;;8.16;68.48
33414;BME280;60055;41.884;12.534;2024-01-11T08:04:23;101413.34;;;8.14;68.03
33414;BME280;60055;41.884;12.534;2024-01-11T08:06:48;101407.22;;;8.13;68.00
33414;BME280;60055;41.884;12.534;2024-01-11T08:09:14;101413.25;;;8.20;67.84
33414;BME280;60055;41.884;12.534;2024-01-11T08:11:39;101414.19;;;8.17;68.01
33414;BME280;60055;41.884;12.534;2024-01-11T08:14:06;101413.06;;;8.34;67.05
33414;BME280;60055;41.884;12.534;2024-01-11T08:16:32;101416.53;;;8.36;67.42
33414;BME280;60055;41.884;12.534;2024-01-11T08:18:58;101414.84;;;8.32;67.26
33414;BME280;60055;41.884;12.534;2024-01-11T08:21:23;101411.97;;;8.45;66.67
33414;BME280;60055;41.884;12.534;2024-01-11T08:23:49;101414.56;;;8.48;66.31
33414;BME280;60055;41.884;12.534;2024-01-11T08:26:15;101410.50;;;8.29;66.76
33414;BME280;60055;41.884;12.534;2024-01-11T08:28:41;101401.56;;;8.39;66.21
33414;BME280;60055;41.884;12.534;2024-01-11T08:31:07;101413.03;;;8.37;66.85
33414;BME280;60055;41.884;12.534;2024-01-11T08:33:33;101411.22;;;8.39;66.64
33414;BME280;60055;41.884;12.534;2024-01-11T08:35:58;101404.28;;;8.35;66.38
33414;BME280;60055;41.884;12.534;2024-01-11T08:38:24;101399.06;;;8.32;65.87
33414;BME280;60055;41.884;12.534;2024-01-11T08:40:50;101398.22;;;8.30;66.15
33414;BME280;60055;41.884;12.534;2024-01-11T08:43:15;101397.34;;;8.31;66.31
33414;BME280;60055;41.884;12.534;2024-01-11T08:45:40;101397.28;;;8.32;66.15
33414;BME280;60055;41.884;12.534;2024-01-11T08:48:06;101401.56;;;8.39;65.84
33414;BME280;60055;41.884;12.534;2024-01-11T08:50:31;101406.88;;;8.36;66.30
33414;BME280;60055;41.884;12.534;2024-01-11T08:52:58;101403.28;;;8.42;66.07
33414;BME280;60055;41.884;12.534;2024-01-11T08:55:23;101396.88;;;8.58;65.96
33414;BME280;60055;41.884;12.534;2024-01-11T08:57:49;101398.72;;;8.53;65.42
33414;BME280;60055;41.884;12.534;2024-01-11T09:00:14;101401.84;;;8.75;65.55
33414;BME280;60055;41.884;12.534;2024-01-11T09:02:43;101394.72;;;8.80;65.42
33414;BME280;60055;41.884;12.534;2024-01-11T09:05:09;101388.69;;;8.75;65.63
33414;BME280;60055;41.884;12.534;2024-01-11T09:07:34;101391.97;;;8.86;65.70
33414;BME280;60055;41.884;12.534;2024-01-11T09:10:00;101386.75;;;8.83;64.97
33414;BME280;60055;41.884;12.534;2024-01-11T09:12:25;101399.84;;;8.87;65.21
33414;BME280;60055;41.884;12.534;2024-01-11T09:14:51;101396.41;;;8.85;64.87
33414;BME280;60055;41.884;12.534;2024-01-11T09:17:16;101393.59;;;8.94;64.72
33414;BME280;60055;41.884;12.534;2024-01-11T09:19:41;101396.91;;;9.05;64.28
33414;BME280;60055;41.884;12.534;2024-01-11T09:22:07;101402.47;;;8.89;65.50
33414;BME280;60055;41.884;12.534;2024-01-11T09:24:35;101401.59;;;8.88;64.87
33414;BME280;60055;41.884;12.534;2024-01-11T09:27:01;101398.78;;;8.99;66.13
33414;BME280;60055;41.884;12.534;2024-01-11T09:29:26;101396.91;;;9.02;64.47
33414;BME280;60055;41.884;12.534;2024-01-11T09:31:53;101391.56;;;9.07;64.39
33414;BME280;60055;41.884;12.534;2024-01-11T09:34:18;101380.44;;;9.37;64.66
33414;BME280;60055;41.884;12.534;2024-01-11T09:36:44;101394.31;;;9.45;63.58
33414;BME280;60055;41.884;12.534;2024-01-11T09:39:10;101395.88;;;9.55;62.82
33414;BME280;60055;41.884;12.534;2024-01-11T09:41:41;101389.22;;;9.36;62.92
33414;BME280;60055;41.884;12.534;2024-01-11T09:44:11;101391.97;;;9.32;63.38
33414;BME280;60055;41.884;12.534;2024-01-11T09:46:36;101389.63;;;9.18;63.68
33414;BME280;60055;41.884;12.534;2024-01-11T09:49:02;101395.50;;;9.31;63.87
33414;BME280;60055;41.884;12.534;2024-01-11T09:51:29;101389.72;;;9.56;64.62
33414;BME280;60055;41.884;12.534;2024-01-11T09:53:55;101388.13;;;9.46;63.40
33414;BME280;60055;41.884;12.534;2024-01-11T09:56:22;101384.88;;;9.35;63.28
33414;BME280;60055;41.884;12.534;2024-01-11T09:58:50;101388.88;;;9.11;63.63
33414;BME280;60055;41.884;12.534;2024-01-11T10:01:16;101389.56;;;9.19;64.38
33414;BME280;60055;41.884;12.534;2024-01-11T10:03:43;101373.53;;;9.30;64.51
33414;BME280;60055;41.884;12.534;2024-01-11T10:06:09;101373.00;;;9.14;63.93
33414;BME280;60055;41.884;12.534;2024-01-11T10:08:35;101369.50;;;9.14;63.92
33414;BME280;60055;41.884;12.534;2024-01-11T10:11:02;101363.22;;;9.19;64.40
33414;BME280;60055;41.884;12.534;2024-01-11T10:13:29;101359.69;;;9.20;65.22
33414;BME280;60055;41.884;12.534;2024-01-11T10:16:11;101360.34;;;9.32;64.76
33414;BME280;60055;41.884;12.534;2024-01-11T10:18:41;101351.41;;;9.39;64.15
33414;BME280;60055;41.884;12.534;2024-01-11T10:21:07;101348.72;;;9.42;64.07
33414;BME280;60055;41.884;12.534;2024-01-11T10:23:38;101347.94;;;9.37;64.44
33414;BME280;60055;41.884;12.534;2024-01-11T10:26:04;101337.00;;;9.55;64.35
33414;BME280;60055;41.884;12.534;2024-01-11T10:28:30;101330.13;;;9.48;63.69
33414;BME280;60055;41.884;12.534;2024-01-11T10:30:56;101332.28;;;9.69;63.96
33414;BME280;60055;41.884;12.534;2024-01-11T10:33:22;101337.31;;;9.80;63.20
33414;BME280;60055;41.884;12.534;2024-01-11T10:35:48;101336.53;;;9.76;63.74
33414;BME280;60055;41.884;12.534;2024-01-11T10:38:15;101327.50;;;9.46;62.91
33414;BME280;60055;41.884;12.534;2024-01-11T10:40:44;101325.13;;;9.36;63.86
33414;BME280;60055;41.884;12.534;2024-01-11T10:43:10;101322.31;;;9.43;64.29
33414;BME280;60055;41.884;12.534;2024-01-11T10:45:37;101318.69;;;9.49;63.49
33414;BME280;60055;41.884;12.534;2024-01-11T10:48:08;101310.63;;;9.55;63.45
33414;BME280;60055;41.884;12.534;2024-01-11T10:50:42;101315.19;;;9.47;62.89
33414;BME280;60055;41.884;12.534;2024-01-11T10:55:58;101304.00;;;9.75;63.07
33414;BME280;60055;41.884;12.534;2024-01-11T10:58:25;101305.06;;;9.68;63.12
33414;BME280;60055;41.884;12.534;2024-01-11T11:00:53;101297.72;;;9.81;63.37
33414;BME280;60055;41.884;12.534;2024-01-11T11:03:23;101287.09;;;9.84;63.00
33414;BME280;60055;41.884;12.534;2024-01-11T11:05:50;101293.22;;;9.85;62.61
33414;BME280;60055;41.884;12.534;2024-01-11T11:08:18;101286.38;;;9.77;62.42
33414;BME280;60055;41.884;12.534;2024-01-11T11:10:45;101290.75;;;9.79;62.57
33414;BME280;60055;41.884;12.534;2024-01-11T11:13:12;101287.59;;;10.00;62.46
33414;BME280;60055;41.884;12.534;2024-01-11T11:15:42;101280.50;;;10.02;63.50
33414;BME280;60055;41.884;12.534;2024-01-11T11:18:12;101276.81;;;10.09;62.55
33414;BME280;60055;41.884;12.534;2024-01-11T11:20:39;101268.56;;;10.22;62.67
33414;BME280;60055;41.884;12.534;2024-01-11T11:23:07;101263.59;;;10.10;61.93
33414;BME280;60055;41.884;12.534;2024-01-11T11:25:35;101269.56;;;10.18;62.06
33414;BME280;60055;41.884;12.534;2024-01-11T11:28:00;101267.78;;;10.19;61.93
33414;BME280;60055;41.884;12.534;2024-01-11T11:30:37;101267.25;;;10.39;62.10
33414;BME280;60055;41.884;12.534;2024-01-11T11:33:20;101265.22;;;10.48;61.22
33414;BME280;60055;41.884;12.534;2024-01-11T11:35:46;101261.16;;;10.37;60.82
33414;BME280;60055;41.884;12.534;2024-01-11T11:38:20;101257.66;;;10.36;61.55
33414;BME280;60055;41.884;12.534;2024-01-11T11:40:46;101239.56;;;10.21;61.76
33414;BME280;60055;41.884;12.534;2024-01-11T11:43:15;101235.66;;;10.02;61.92
33414;BME280;60055;41.884;12.534;2024-01-11T11:45:41;101236.59;;;9.99;62.21
33414;BME280;60055;41.884;12.534;2024-01-11T11:51:21;101234.69;;;10.04;62.24
33414;BME280;60055;41.884;12.534;2024-01-11T11:53:50;101226.78;;;10.04;62.47
33414;BME280;60055;41.884;12.534;2024-01-11T11:56:18;101210.53;;;10.21;62.27
33414;BME280;60055;41.884;12.534;2024-01-11T11:58:47;101204.16;;;10.30;62.71
33414;BME280;60055;41.884;12.534;2024-01-11T12:01:14;101209.94;;;10.10;62.47
33414;BME280;60055;41.884;12.534;2024-01-11T12:03:43;101200.13;;;10.16;62.61
33414;BME280;60055;41.884;12.534;2024-01-11T12:06:17;101197.94;;;9.98;63.46
33414;BME280;60055;41.884;12.534;2024-01-11T12:08:44;101191.41;;;10.11;63.10
33414;BME280;60055;41.884;12.534;2024-01-11T12:11:13;101181.50;;;10.21;62.99
33414;BME280;60055;41.884;12.534;2024-01-11T12:13:40;101179.88;;;10.17;62.81
33414;BME280;60055;41.884;12.534;2024-01-11T12:16:06;101178.28;;;10.10;62.88
33414;BME280;60055;41.884;12.534;2024-01-11T12:18:31;101184.34;;;10.13;63.20
33414;BME280;60055;41.884;12.534;2024-01-11T12:20:57;101186.09;;;10.14;63.10
33414;BME280;60055;41.884;12.534;2024-01-11T12:23:22;101178.06;;;10.19;63.56
33414;BME280;60055;41.884;12.534;2024-01-11T12:25:48;101175.44;;;10.17;63.62
33414;BME280;60055;41.884;12.534;2024-01-11T12:28:14;101180.84;;;10.11;63.81
33414;BME280;60055;41.884;12.534;2024-01-11T12:30:39;101175.59;;;10.11;64.42
33414;BME280;60055;41.884;12.534;2024-01-11T12:33:05;101165.84;;;10.15;64.55
33414;BME280;60055;41.884;12.534;2024-01-11T12:35:31;101164.16;;;10.11;64.59
33414;BME280;60055;41.884;12.534;2024-01-11T12:38:02;101164.25;;;10.08;65.33
33414;BME280;60055;41.884;12.534;2024-01-11T12:40:34;101161.56;;;10.09;65.40
33414;BME280;60055;41.884;12.534;2024-01-11T12:43:00;101157.38;;;10.02;65.29
33414;BME280;60055;41.884;12.534;2024-01-11T12:45:26;101161.50;;;10.12;65.31
33414;BME280;60055;41.884;12.534;2024-01-11T12:47:53;101156.13;;;10.17;64.82
33414;BME280;60055;41.884;12.534;2024-01-11T12:50:20;101151.56;;;10.23;64.67
33414;BME280;60055;41.884;12.534;2024-01-11T12:52:46;101146.09;;;10.30;64.63
33414;BME280;60055;41.884;12.534;2024-01-11T12:55:18;101146.19;;;10.27;64.23
33414;BME280;60055;41.884;12.534;2024-01-11T12:57:44;101140.91;;;10.27;64.50
33414;BME280;60055;41.884;12.534;2024-01-11T13:00:11;101132.84;;;10.31;64.81
33414;BME280;60055;41.884;12.534;2024-01-11T13:02:36;101131.94;;;10.32;64.16